createdAt,value
2017-05-01T00:00:37.006Z,0
2017-05-01T00:01:37.034Z,0
2017-05-01T00:02:37.002Z,0
2017-05-01T00:03:37.229Z,0
2017-05-01T00:04:36.659Z,0
2017-05-01T00:05:36.957Z,0
2017-05-01T00:06:36.940Z,0
2017-05-01T00:07:36.930Z,0
2017-05-01T00:08:37.171Z,0
2017-05-01T00:09:36.912Z,0
2017-05-01T00:10:36.894Z,0
2017-05-01T00:11:36.892Z,0
2017-05-01T00:12:36.874Z,0
2017-05-01T00:13:37.168Z,0
2017-05-01T00:14:36.854Z,0
2017-05-01T00:15:36.537Z,0
2017-05-01T00:16:36.832Z,0
2017-05-01T00:17:36.824Z,0
2017-05-01T00:18:36.761Z,0
2017-05-01T00:19:36.499Z,0
2017-05-01T00:20:36.515Z,0
2017-05-01T00:21:36.471Z,0
2017-05-01T00:22:36.762Z,0
2017-05-01T00:23:37.055Z,0
2017-05-01T00:24:36.752Z,0
2017-05-01T00:25:36.729Z,0
2017-05-01T00:26:36.719Z,0
2017-05-01T00:27:36.407Z,0
2017-05-01T00:28:37.002Z,0
2017-05-01T00:29:36.693Z,0
2017-05-01T00:30:36.678Z,0
2017-05-01T00:31:36.667Z,0
2017-05-01T00:32:36.656Z,0
2017-05-01T00:33:36.945Z,0
2017-05-01T00:34:36.634Z,0
2017-05-01T00:35:36.625Z,0
2017-05-01T00:36:36.605Z,0
2017-05-01T00:37:36.610Z,0
2017-05-01T00:38:36.842Z,0
2017-05-01T00:39:36.270Z,0
2017-05-01T00:40:35.967Z,0
2017-05-01T00:41:36.899Z,0
2017-05-01T00:42:36.543Z,0
2017-05-01T00:43:36.849Z,0
2017-05-01T00:44:36.518Z,0
2017-05-01T00:45:36.507Z,0
2017-05-01T00:46:36.499Z,0
2017-05-01T00:47:36.486Z,0
2017-05-01T00:48:36.730Z,0
2017-05-01T00:49:36.465Z,0
2017-05-01T00:50:36.452Z,0
2017-05-01T00:51:36.444Z,0
2017-05-01T00:52:36.440Z,0
2017-05-01T00:53:36.423Z,0
2017-05-01T00:54:36.407Z,0
2017-05-01T00:55:36.398Z,0
2017-05-01T00:56:36.383Z,0
2017-05-01T00:57:36.376Z,0
2017-05-01T00:58:36.667Z,0
2017-05-01T00:59:36.353Z,0
2017-05-01T01:00:36.340Z,0
2017-05-01T01:01:36.371Z,0
2017-05-01T01:02:36.321Z,0
2017-05-01T01:03:36.657Z,0
2017-05-01T01:04:36.314Z,0
2017-05-01T01:05:36.013Z,0
2017-05-01T01:06:35.970Z,0
2017-05-01T01:07:36.261Z,0
2017-05-01T01:08:36.202Z,0
2017-05-01T01:09:36.242Z,0
2017-05-01T01:10:36.230Z,0
2017-05-01T01:11:36.217Z,0
2017-05-01T01:12:36.203Z,0
2017-05-01T01:13:36.466Z,0
2017-05-01T01:14:35.884Z,0
2017-05-01T01:15:35.868Z,0
2017-05-01T01:16:36.161Z,0
2017-05-01T01:17:35.852Z,0
2017-05-01T01:18:36.441Z,0
2017-05-01T01:19:36.128Z,0
2017-05-01T01:20:35.815Z,0
2017-05-01T01:21:36.103Z,0
2017-05-01T01:22:36.093Z,0
2017-05-01T01:23:36.128Z,0
2017-05-01T01:24:35.767Z,0
2017-05-01T01:25:35.752Z,0
2017-05-01T01:26:35.742Z,0
2017-05-01T01:27:36.036Z,0
2017-05-01T01:28:36.282Z,0
2017-05-01T01:29:36.013Z,0
2017-05-01T01:30:35.999Z,0
2017-05-01T01:31:35.987Z,0
2017-05-01T01:32:35.986Z,0
2017-05-01T01:33:36.220Z,0
2017-05-01T01:34:35.954Z,0
2017-05-01T01:35:35.945Z,0
2017-05-01T01:36:35.630Z,0
2017-05-01T01:37:35.917Z,0
2017-05-01T01:38:36.213Z,0
2017-05-01T01:39:35.900Z,0
2017-05-01T01:40:35.888Z,0
2017-05-01T01:41:35.871Z,0
2017-05-01T01:42:35.866Z,0
2017-05-01T01:43:35.803Z,0
2017-05-01T01:44:35.539Z,0
2017-05-01T01:45:35.827Z,0
2017-05-01T01:46:35.823Z,0
2017-05-01T01:47:35.503Z,0
2017-05-01T01:48:36.096Z,0
2017-05-01T01:49:35.833Z,0
2017-05-01T01:50:35.771Z,0
2017-05-01T01:51:35.453Z,0
2017-05-01T01:52:35.750Z,0
2017-05-01T01:53:35.992Z,0
2017-05-01T01:54:35.730Z,0
2017-05-01T01:55:35.717Z,0
2017-05-01T01:56:35.701Z,0
2017-05-01T01:57:35.693Z,0
2017-05-01T01:58:35.984Z,0
2017-05-01T01:59:35.668Z,0
2017-05-01T02:00:35.353Z,0
2017-05-01T02:01:35.647Z,0
2017-05-01T02:02:35.637Z,0
2017-05-01T02:03:35.619Z,0
2017-05-01T02:04:35.613Z,0
2017-05-01T02:05:35.604Z,0
2017-05-01T02:06:35.588Z,0
2017-05-01T02:07:35.578Z,0
2017-05-01T02:08:35.873Z,0
2017-05-01T02:09:35.558Z,0
2017-05-01T02:10:35.239Z,0
2017-05-01T02:11:35.252Z,0
2017-05-01T02:12:35.212Z,0
2017-05-01T02:13:35.858Z,0
2017-05-01T02:14:35.498Z,0
2017-05-01T02:15:35.484Z,0
2017-05-01T02:16:35.476Z,0
2017-05-01T02:17:35.462Z,0
2017-05-01T02:18:35.407Z,0
2017-05-01T02:19:35.478Z,0
2017-05-01T02:20:35.425Z,0
2017-05-01T02:21:35.412Z,0
2017-05-01T02:22:35.399Z,0
2017-05-01T02:23:35.704Z,0
2017-05-01T02:24:35.383Z,0
2017-05-01T02:25:35.362Z,0
2017-05-01T02:26:35.353Z,0
2017-05-01T02:27:34.740Z,0
2017-05-01T02:28:35.583Z,0
2017-05-01T02:29:35.330Z,0
2017-05-01T02:30:35.011Z,0
2017-05-01T02:31:35.299Z,0
2017-05-01T02:32:35.293Z,0
2017-05-01T02:33:34.975Z,0
2017-05-01T02:34:35.562Z,0
2017-05-01T02:35:35.250Z,0
2017-05-01T02:36:35.240Z,0
2017-05-01T02:37:35.228Z,0
2017-05-01T02:38:34.911Z,0
2017-05-01T02:39:35.194Z,0
2017-05-01T02:40:35.200Z,0
2017-05-01T02:41:35.180Z,0
2017-05-01T02:42:35.177Z,0
2017-05-01T02:43:35.167Z,0
2017-05-01T02:44:35.396Z,0
2017-05-01T02:45:35.135Z,0
2017-05-01T02:46:35.120Z,0
2017-05-01T02:47:34.808Z,0
2017-05-01T02:48:35.107Z,0
2017-05-01T02:49:35.388Z,0
2017-05-01T02:50:35.072Z,0
2017-05-01T02:51:35.062Z,0
2017-05-01T02:52:35.053Z,0
2017-05-01T02:53:34.496Z,0
2017-05-01T02:54:35.334Z,0
2017-05-01T02:55:35.019Z,0
2017-05-01T02:56:34.705Z,0
2017-05-01T02:57:34.692Z,0
2017-05-01T02:58:34.988Z,0
2017-05-01T02:59:35.225Z,0
2017-05-01T03:00:34.988Z,0
2017-05-01T03:01:34.944Z,0
2017-05-01T03:02:34.940Z,0
2017-05-01T03:03:34.925Z,0
2017-05-01T03:04:35.210Z,0
2017-05-01T03:05:34.895Z,0
2017-05-01T03:06:34.934Z,0
2017-05-01T03:07:34.874Z,0
2017-05-01T03:08:34.865Z,0
2017-05-01T03:09:34.799Z,0
2017-05-01T03:10:34.845Z,0
2017-05-01T03:11:34.830Z,0
2017-05-01T03:12:34.817Z,0
2017-05-01T03:13:34.809Z,0
2017-05-01T03:14:35.095Z,0
2017-05-01T03:15:34.779Z,0
2017-05-01T03:16:34.765Z,0
2017-05-01T03:17:34.756Z,0
2017-05-01T03:18:34.745Z,0
2017-05-01T03:19:35.083Z,0
2017-05-01T03:20:34.727Z,0
2017-05-01T03:21:34.711Z,0
2017-05-01T03:22:34.695Z,5
2017-05-01T03:23:34.686Z,5
2017-05-01T03:24:34.926Z,5
2017-05-01T03:25:34.658Z,5
2017-05-01T03:26:34.646Z,5
2017-05-01T03:27:34.640Z,5
2017-05-01T03:28:34.628Z,5
2017-05-01T03:29:34.875Z,10
2017-05-01T03:30:34.599Z,10
2017-05-01T03:31:34.592Z,10
2017-05-01T03:32:34.578Z,10
2017-05-01T03:33:34.565Z,10
2017-05-01T03:34:34.505Z,15
2017-05-01T03:35:34.552Z,15
2017-05-01T03:36:34.561Z,15
2017-05-01T03:37:34.523Z,15
2017-05-01T03:38:34.509Z,20
2017-05-01T03:39:34.833Z,20
2017-05-01T03:40:34.487Z,20
2017-05-01T03:41:34.474Z,25
2017-05-01T03:42:34.458Z,25
2017-05-01T03:43:34.454Z,25
2017-05-01T03:44:34.736Z,30
2017-05-01T03:45:34.421Z,30
2017-05-01T03:46:34.410Z,35
2017-05-01T03:47:34.400Z,35
2017-05-01T03:48:33.784Z,35
2017-05-01T03:49:34.627Z,40
2017-05-01T03:50:34.365Z,40
2017-05-01T03:51:34.391Z,45
2017-05-01T03:52:34.036Z,45
2017-05-01T03:53:34.028Z,50
2017-05-01T03:54:34.619Z,50
2017-05-01T03:55:34.305Z,50
2017-05-01T03:56:34.291Z,50
2017-05-01T03:57:34.283Z,55
2017-05-01T03:58:34.271Z,55
2017-05-01T03:59:34.567Z,60
2017-05-01T04:00:34.246Z,65
2017-05-01T04:01:34.237Z,70
2017-05-01T04:02:33.920Z,75
2017-05-01T04:03:34.210Z,80
2017-05-01T04:04:34.449Z,80
2017-05-01T04:05:34.194Z,85
2017-05-01T04:06:34.177Z,95
2017-05-01T04:07:34.174Z,95
2017-05-01T04:08:33.857Z,95
2017-05-01T04:09:34.442Z,95
2017-05-01T04:10:34.129Z,95
2017-05-01T04:11:34.121Z,100
2017-05-01T04:12:34.106Z,115
2017-05-01T04:13:34.098Z,120
2017-05-01T04:14:34.339Z,125
2017-05-01T04:15:33.773Z,135
2017-05-01T04:16:34.060Z,140
2017-05-01T04:17:34.051Z,140
2017-05-01T04:18:33.738Z,140
2017-05-01T04:19:34.281Z,140
2017-05-01T04:20:33.714Z,140
2017-05-01T04:21:34.008Z,140
2017-05-01T04:22:33.694Z,140
2017-05-01T04:23:33.986Z,135
2017-05-01T04:24:33.972Z,135
2017-05-01T04:25:33.657Z,125
2017-05-01T04:26:33.653Z,130
2017-05-01T04:27:33.948Z,120
2017-05-01T04:28:33.936Z,110
2017-05-01T04:29:34.221Z,110
2017-05-01T04:30:33.917Z,105
2017-05-01T04:31:33.910Z,100
2017-05-01T04:32:33.899Z,105
2017-05-01T04:33:33.888Z,110
2017-05-01T04:34:34.178Z,115
2017-05-01T04:35:33.863Z,120
2017-05-01T04:36:33.858Z,125
2017-05-01T04:37:33.843Z,135
2017-05-01T04:38:33.557Z,135
2017-05-01T04:39:34.077Z,140
2017-05-01T04:40:33.815Z,145
2017-05-01T04:41:33.804Z,150
2017-05-01T04:42:33.798Z,155
2017-05-01T04:43:33.787Z,165
2017-05-01T04:44:34.079Z,165
2017-05-01T04:45:33.764Z,165
2017-05-01T04:46:33.758Z,170
2017-05-01T04:47:33.444Z,170
2017-05-01T04:48:33.745Z,170
2017-05-01T04:49:33.976Z,200
2017-05-01T04:50:33.720Z,170
2017-05-01T04:51:33.710Z,170
2017-05-01T04:52:33.698Z,165
2017-05-01T04:53:33.695Z,160
2017-05-01T04:54:33.928Z,160
2017-05-01T04:55:33.667Z,165
2017-05-01T04:56:33.656Z,155
2017-05-01T04:57:33.650Z,150
2017-05-01T04:58:33.638Z,145
2017-05-01T04:59:33.578Z,140
2017-05-01T05:00:33.614Z,145
2017-05-01T05:01:33.608Z,170
2017-05-01T05:02:33.597Z,185
2017-05-01T05:03:33.585Z,195
2017-05-01T05:04:33.884Z,195
2017-05-01T05:05:33.563Z,190
2017-05-01T05:06:33.556Z,190
2017-05-01T05:07:33.542Z,190
2017-05-01T05:08:33.568Z,190
2017-05-01T05:09:33.473Z,190
2017-05-01T05:10:33.514Z,190
2017-05-01T05:11:33.504Z,180
2017-05-01T05:12:33.495Z,175
2017-05-01T05:13:33.497Z,175
2017-05-01T05:14:33.830Z,175
2017-05-01T05:15:33.463Z,175
2017-05-01T05:16:33.450Z,180
2017-05-01T05:17:33.450Z,195
2017-05-01T05:18:33.438Z,210
2017-05-01T05:19:33.676Z,225
2017-05-01T05:20:33.423Z,250
2017-05-01T05:21:33.406Z,275
2017-05-01T05:22:33.094Z,295
2017-05-01T05:23:33.393Z,305
2017-05-01T05:24:33.627Z,305
2017-05-01T05:25:33.366Z,295
2017-05-01T05:26:33.362Z,280
2017-05-01T05:27:33.345Z,265
2017-05-01T05:28:33.342Z,245
2017-05-01T05:29:33.587Z,235
2017-05-01T05:30:33.324Z,240
2017-05-01T05:31:33.315Z,235
2017-05-01T05:32:33.302Z,235
2017-05-01T05:33:33.296Z,230
2017-05-01T05:34:33.588Z,225
2017-05-01T05:35:33.271Z,225
2017-05-01T05:36:33.271Z,240
2017-05-01T05:37:33.253Z,255
2017-05-01T05:38:33.293Z,260
2017-05-01T05:39:33.486Z,255
2017-05-01T05:40:33.227Z,255
2017-05-01T05:41:33.220Z,250
2017-05-01T05:42:33.213Z,235
2017-05-01T05:43:33.206Z,220
2017-05-01T05:44:33.443Z,225
2017-05-01T05:45:33.181Z,230
2017-05-01T05:46:33.177Z,235
2017-05-01T05:47:33.165Z,230
2017-05-01T05:48:33.158Z,235
2017-05-01T05:49:33.397Z,245
2017-05-01T05:50:33.143Z,255
2017-05-01T05:51:32.824Z,255
2017-05-01T05:52:33.118Z,245
2017-05-01T05:53:33.110Z,235
2017-05-01T05:54:33.109Z,235
2017-05-01T05:55:33.390Z,245
2017-05-01T05:56:33.083Z,260
2017-05-01T05:57:33.074Z,270
2017-05-01T05:58:33.078Z,280
2017-05-01T05:59:33.054Z,290
2017-05-01T06:00:33.294Z,305
2017-05-01T06:01:33.036Z,310
2017-05-01T06:02:33.025Z,310
2017-05-01T06:03:33.035Z,310
2017-05-01T06:04:32.711Z,305
2017-05-01T06:05:33.306Z,290
2017-05-01T06:06:33.002Z,285
2017-05-01T06:07:32.988Z,290
2017-05-01T06:08:32.981Z,310
2017-05-01T06:09:32.674Z,325
2017-05-01T06:10:33.212Z,325
2017-05-01T06:11:32.955Z,330
2017-05-01T06:12:32.945Z,340
2017-05-01T06:13:32.940Z,330
2017-05-01T06:14:32.929Z,320
2017-05-01T06:15:33.273Z,325
2017-05-01T06:16:32.909Z,335
2017-05-01T06:17:32.905Z,330
2017-05-01T06:18:32.910Z,320
2017-05-01T06:19:32.893Z,315
2017-05-01T06:20:33.129Z,315
2017-05-01T06:21:32.569Z,320
2017-05-01T06:22:32.867Z,340
2017-05-01T06:23:32.861Z,355
2017-05-01T06:24:32.850Z,365
2017-05-01T06:25:33.140Z,355
2017-05-01T06:26:32.839Z,350
2017-05-01T06:27:32.830Z,365
2017-05-01T06:28:32.819Z,400
2017-05-01T06:29:32.505Z,420
2017-05-01T06:30:33.108Z,440
2017-05-01T06:31:32.797Z,440
2017-05-01T06:32:32.793Z,430
2017-05-01T06:33:32.785Z,445
2017-05-01T06:34:32.777Z,450
2017-05-01T06:35:33.016Z,450
2017-05-01T06:36:32.761Z,450
2017-05-01T06:37:32.753Z,445
2017-05-01T06:38:32.751Z,465
2017-05-01T06:39:32.744Z,450
2017-05-01T06:40:32.683Z,450
2017-05-01T06:41:32.728Z,430
2017-05-01T06:42:32.723Z,420
2017-05-01T06:43:32.760Z,440
2017-05-01T06:44:32.716Z,460
2017-05-01T06:45:33.054Z,470
2017-05-01T06:46:32.695Z,465
2017-05-01T06:47:32.688Z,440
2017-05-01T06:48:32.689Z,420
2017-05-01T06:49:32.687Z,410
2017-05-01T06:50:32.667Z,420
2017-05-01T06:51:32.663Z,430
2017-05-01T06:52:32.361Z,430
2017-05-01T06:53:32.653Z,440
2017-05-01T06:54:32.650Z,445
2017-05-01T06:55:32.936Z,460
2017-05-01T06:56:32.640Z,465
2017-05-01T06:57:32.636Z,470
2017-05-01T06:58:32.617Z,475
2017-05-01T06:59:32.615Z,475
2017-05-01T07:00:32.867Z,460
2017-05-01T07:01:32.632Z,450
2017-05-01T07:02:32.599Z,430
2017-05-01T07:03:32.595Z,435
2017-05-01T07:04:32.584Z,450
2017-05-01T07:05:32.830Z,475
2017-05-01T07:06:32.583Z,480
2017-05-01T07:07:32.567Z,465
2017-05-01T07:08:32.563Z,460
2017-05-01T07:09:32.251Z,475
2017-05-01T07:10:32.852Z,485
2017-05-01T07:11:32.242Z,495
2017-05-01T07:12:32.234Z,505
2017-05-01T07:13:32.229Z,510
2017-05-01T07:14:32.539Z,515
2017-05-01T07:15:32.819Z,535
2017-05-01T07:16:32.246Z,570
2017-05-01T07:17:32.508Z,585
2017-05-01T07:18:32.514Z,585
2017-05-01T07:19:32.504Z,580
2017-05-01T07:20:32.748Z,600
2017-05-01T07:21:32.487Z,675
2017-05-01T07:22:32.479Z,695
2017-05-01T07:23:32.477Z,780
2017-05-01T07:24:32.475Z,790
2017-05-01T07:25:32.769Z,835
2017-05-01T07:26:32.462Z,1015
2017-05-01T07:27:32.494Z,1245
2017-05-01T07:28:32.449Z,920
2017-05-01T07:29:32.460Z,770
2017-05-01T07:30:32.745Z,780
2017-05-01T07:31:32.441Z,875
2017-05-01T07:32:32.434Z,915
2017-05-01T07:33:32.438Z,845
2017-05-01T07:34:32.127Z,905
2017-05-01T07:35:32.680Z,765
2017-05-01T07:36:32.425Z,1545
2017-05-01T07:37:32.116Z,1590
2017-05-01T07:38:32.418Z,1890
2017-05-01T07:39:32.413Z,1240
2017-05-01T07:40:32.711Z,1545
2017-05-01T07:41:32.410Z,1520
2017-05-01T07:42:32.403Z,1730
2017-05-01T07:43:32.416Z,1060
2017-05-01T07:44:32.106Z,740
2017-05-01T07:45:32.456Z,870
2017-05-01T07:46:32.103Z,1345
2017-05-01T07:47:32.098Z,825
2017-05-01T07:48:32.403Z,745
2017-05-01T07:49:32.402Z,1480
2017-05-01T07:50:32.706Z,2140
2017-05-01T07:51:32.405Z,765
2017-05-01T07:52:32.104Z,885
2017-05-01T07:53:32.404Z,835
2017-05-01T07:54:32.410Z,1085
2017-05-01T07:55:32.661Z,1015
2017-05-01T07:56:32.107Z,890
2017-05-01T07:57:32.106Z,965
2017-05-01T07:58:32.409Z,1355
2017-05-01T07:59:32.416Z,830
2017-05-01T08:00:32.659Z,1190
2017-05-01T08:01:32.409Z,880
2017-05-01T08:02:32.414Z,1475
2017-05-01T08:03:32.411Z,915
2017-05-01T08:04:32.411Z,1220
2017-05-01T08:05:32.665Z,800
2017-05-01T08:06:32.416Z,925
2017-05-01T08:07:32.415Z,855
2017-05-01T08:08:32.420Z,785
2017-05-01T08:09:32.117Z,725
2017-05-01T08:10:32.771Z,860
2017-05-01T08:11:32.113Z,1005
2017-05-01T08:12:32.419Z,970
2017-05-01T08:13:32.120Z,1245
2017-05-01T08:14:32.115Z,935
2017-05-01T08:15:32.686Z,915
2017-05-01T08:16:32.419Z,885
2017-05-01T08:17:32.474Z,885
2017-05-01T08:18:32.422Z,945
2017-05-01T08:19:32.417Z,875
2017-05-01T08:20:32.670Z,775
2017-05-01T08:21:32.416Z,835
2017-05-01T08:22:32.419Z,820
2017-05-01T08:23:32.420Z,950
2017-05-01T08:24:32.116Z,850
2017-05-01T08:25:32.420Z,840
2017-05-01T08:26:32.112Z,855
2017-05-01T08:27:32.415Z,880
2017-05-01T08:28:32.426Z,890
2017-05-01T08:29:32.425Z,860
2017-05-01T08:30:32.416Z,765
2017-05-01T08:31:32.506Z,770
2017-05-01T08:32:32.409Z,775
2017-05-01T08:33:32.417Z,830
2017-05-01T08:34:32.411Z,890
2017-05-01T08:35:32.659Z,830
2017-05-01T08:36:32.411Z,890
2017-05-01T08:37:32.411Z,940
2017-05-01T08:38:32.414Z,930
2017-05-01T08:39:32.411Z,930
2017-05-01T08:40:32.684Z,950
2017-05-01T08:41:32.107Z,960
2017-05-01T08:42:32.405Z,960
2017-05-01T08:43:32.404Z,945
2017-05-01T08:44:32.398Z,900
2017-05-01T08:45:32.650Z,870
2017-05-01T08:46:32.402Z,860
2017-05-01T08:47:32.410Z,870
2017-05-01T08:48:32.095Z,860
2017-05-01T08:49:32.090Z,845
2017-05-01T08:50:32.087Z,820
2017-05-01T08:51:32.389Z,840
2017-05-01T08:52:32.087Z,865
2017-05-01T08:53:32.408Z,870
2017-05-01T08:54:32.397Z,885
2017-05-01T08:55:32.639Z,880
2017-05-01T08:56:32.395Z,875
2017-05-01T08:57:32.392Z,855
2017-05-01T08:58:32.393Z,855
2017-05-01T08:59:32.388Z,820
2017-05-01T09:00:32.637Z,780
2017-05-01T09:01:32.381Z,775
2017-05-01T09:02:32.422Z,790
2017-05-01T09:03:32.379Z,860
2017-05-01T09:04:32.382Z,870
2017-05-01T09:05:32.082Z,865
2017-05-01T09:06:32.437Z,825
2017-05-01T09:07:32.378Z,795
2017-05-01T09:08:32.079Z,780
2017-05-01T09:09:32.378Z,830
2017-05-01T09:10:32.371Z,795
2017-05-01T09:11:32.624Z,730
2017-05-01T09:12:32.073Z,730
2017-05-01T09:13:32.413Z,755
2017-05-01T09:14:32.094Z,780
2017-05-01T09:15:32.374Z,790
2017-05-01T09:16:32.320Z,765
2017-05-01T09:17:32.367Z,730
2017-05-01T09:18:32.374Z,720
2017-05-01T09:19:32.383Z,665
2017-05-01T09:20:32.372Z,565
2017-05-01T09:21:32.365Z,510
2017-05-01T09:22:32.060Z,475
2017-05-01T09:23:32.370Z,445
2017-05-01T09:24:31.759Z,430
2017-05-01T09:25:32.059Z,420
2017-05-01T09:26:32.335Z,415
2017-05-01T09:27:32.359Z,410
2017-05-01T09:28:32.362Z,405
2017-05-01T09:29:32.361Z,400
2017-05-01T09:30:32.354Z,400
2017-05-01T09:31:32.600Z,395
2017-05-01T09:32:32.346Z,395
2017-05-01T09:33:32.366Z,395
2017-05-01T09:34:32.347Z,395
2017-05-01T09:35:32.344Z,390
2017-05-01T09:36:32.586Z,390
2017-05-01T09:37:32.039Z,390
2017-05-01T09:38:32.335Z,395
2017-05-01T09:39:32.339Z,390
2017-05-01T09:40:32.330Z,390
2017-05-01T09:41:32.627Z,395
2017-05-01T09:42:32.323Z,400
2017-05-01T09:43:32.318Z,395
2017-05-01T09:44:32.019Z,390
2017-05-01T09:45:32.317Z,390
2017-05-01T09:46:32.609Z,385
2017-05-01T09:47:32.319Z,385
2017-05-01T09:48:32.301Z,380
2017-05-01T09:49:32.307Z,380
2017-05-01T09:50:32.295Z,385
2017-05-01T09:51:32.608Z,385
2017-05-01T09:52:32.294Z,375
2017-05-01T09:53:32.290Z,375
2017-05-01T09:54:31.996Z,370
2017-05-01T09:55:32.282Z,370
2017-05-01T09:56:32.530Z,370
2017-05-01T09:57:31.970Z,370
2017-05-01T09:58:31.969Z,375
2017-05-01T09:59:32.267Z,370
2017-05-01T10:00:32.262Z,370
2017-05-01T10:01:32.508Z,375
2017-05-01T10:02:32.258Z,375
2017-05-01T10:03:32.254Z,375
2017-05-01T10:04:32.249Z,375
2017-05-01T10:05:32.248Z,375
2017-05-01T10:06:32.239Z,370
2017-05-01T10:07:32.242Z,370
2017-05-01T10:08:32.236Z,370
2017-05-01T10:09:32.600Z,370
2017-05-01T10:10:32.226Z,365
2017-05-01T10:11:32.579Z,365
2017-05-01T10:12:32.231Z,360
2017-05-01T10:13:32.220Z,355
2017-05-01T10:14:32.217Z,350
2017-05-01T10:15:32.210Z,355
2017-05-01T10:16:32.456Z,355
2017-05-01T10:17:32.202Z,360
2017-05-01T10:18:31.595Z,360
2017-05-01T10:19:31.925Z,360
2017-05-01T10:20:32.199Z,360
2017-05-01T10:21:32.492Z,365
2017-05-01T10:22:32.189Z,360
2017-05-01T10:23:32.188Z,360
2017-05-01T10:24:32.179Z,360
2017-05-01T10:25:32.181Z,360
2017-05-01T10:26:32.424Z,365
2017-05-01T10:27:32.180Z,355
2017-05-01T10:28:32.172Z,360
2017-05-01T10:29:32.166Z,355
2017-05-01T10:30:31.862Z,360
2017-05-01T10:31:32.150Z,360
2017-05-01T10:32:32.155Z,365
2017-05-01T10:33:32.151Z,380
2017-05-01T10:34:32.145Z,390
2017-05-01T10:35:32.144Z,375
2017-05-01T10:36:32.090Z,370
2017-05-01T10:37:32.131Z,360
2017-05-01T10:38:32.142Z,355
2017-05-01T10:39:32.131Z,350
2017-05-01T10:40:32.130Z,350
2017-05-01T10:41:32.070Z,355
2017-05-01T10:42:32.112Z,360
2017-05-01T10:43:32.115Z,360
2017-05-01T10:44:32.116Z,345
2017-05-01T10:45:32.115Z,350
2017-05-01T10:46:32.408Z,350
2017-05-01T10:47:32.097Z,350
2017-05-01T10:48:32.095Z,350
2017-05-01T10:49:31.803Z,360
2017-05-01T10:50:32.088Z,375
2017-05-01T10:51:32.035Z,385
2017-05-01T10:52:31.786Z,385
2017-05-01T10:53:32.084Z,375
2017-05-01T10:54:31.781Z,375
2017-05-01T10:55:32.070Z,380
2017-05-01T10:56:32.449Z,410
2017-05-01T10:57:32.077Z,390
2017-05-01T10:58:32.070Z,355
2017-05-01T10:59:32.068Z,350
2017-05-01T11:00:31.750Z,340
2017-05-01T11:01:32.354Z,385
2017-05-01T11:02:31.746Z,435
2017-05-01T11:03:32.057Z,530
2017-05-01T11:04:31.738Z,625
2017-05-01T11:05:32.040Z,595
2017-05-01T11:06:32.383Z,580
2017-05-01T11:07:31.736Z,605
2017-05-01T11:08:31.739Z,620
2017-05-01T11:09:32.030Z,625
2017-05-01T11:10:32.028Z,615
2017-05-01T11:11:32.325Z,555
2017-05-01T11:12:32.021Z,560
2017-05-01T11:13:32.020Z,550
2017-05-01T11:14:32.026Z,500
2017-05-01T11:15:32.010Z,415
2017-05-01T11:16:32.307Z,370
2017-05-01T11:17:32.007Z,345
2017-05-01T11:18:31.707Z,400
2017-05-01T11:19:31.999Z,415
2017-05-01T11:20:32.000Z,430
2017-05-01T11:21:32.245Z,435
2017-05-01T11:22:31.691Z,430
2017-05-01T11:23:31.997Z,410
2017-05-01T11:24:32.028Z,450
2017-05-01T11:25:31.988Z,455
2017-05-01T11:26:32.235Z,475
2017-05-01T11:27:31.687Z,510
2017-05-01T11:28:31.979Z,535
2017-05-01T11:29:31.986Z,500
2017-05-01T11:30:31.985Z,490
2017-05-01T11:31:32.220Z,495
2017-05-01T11:32:31.975Z,520
2017-05-01T11:33:31.968Z,520
2017-05-01T11:34:31.984Z,545
2017-05-01T11:35:31.965Z,590
2017-05-01T11:36:31.605Z,630
2017-05-01T11:37:31.658Z,560
2017-05-01T11:38:31.958Z,515
2017-05-01T11:39:31.962Z,550
2017-05-01T11:40:31.952Z,605
2017-05-01T11:41:32.254Z,585
2017-05-01T11:42:31.951Z,550
2017-05-01T11:43:31.951Z,505
2017-05-01T11:44:31.645Z,460
2017-05-01T11:45:31.939Z,455
2017-05-01T11:46:32.244Z,500
2017-05-01T11:47:31.033Z,545
2017-05-01T11:48:31.337Z,570
2017-05-01T11:49:31.639Z,595
2017-05-01T11:50:31.939Z,645
2017-05-01T11:51:32.237Z,680
2017-05-01T11:52:31.639Z,675
2017-05-01T11:53:31.934Z,660
2017-05-01T11:54:31.932Z,650
2017-05-01T11:55:31.930Z,650
2017-05-01T11:56:32.178Z,625
2017-05-01T11:57:31.929Z,610
2017-05-01T11:58:31.928Z,630
2017-05-01T11:59:31.619Z,640
2017-05-01T12:00:31.922Z,610
2017-05-01T12:01:32.169Z,585
2017-05-01T12:02:31.965Z,585
2017-05-01T12:03:31.921Z,585
2017-05-01T12:04:31.615Z,590
2017-05-01T12:05:31.613Z,610
2017-05-01T12:06:32.221Z,620
2017-05-01T12:07:31.610Z,610
2017-05-01T12:08:31.617Z,600
2017-05-01T12:09:31.915Z,585
2017-05-01T12:10:31.913Z,585
2017-05-01T12:11:32.163Z,590
2017-05-01T12:12:31.309Z,605
2017-05-01T12:13:31.909Z,610
2017-05-01T12:14:31.921Z,615
2017-05-01T12:15:31.907Z,625
2017-05-01T12:16:32.255Z,620
2017-05-01T12:17:31.905Z,590
2017-05-01T12:18:31.910Z,535
2017-05-01T12:19:31.905Z,515
2017-05-01T12:20:31.902Z,525
2017-05-01T12:21:32.192Z,550
2017-05-01T12:22:31.898Z,580
2017-05-01T12:23:31.910Z,605
2017-05-01T12:24:31.602Z,635
2017-05-01T12:25:31.327Z,650
2017-05-01T12:26:32.196Z,655
2017-05-01T12:27:31.895Z,650
2017-05-01T12:28:31.890Z,655
2017-05-01T12:29:31.594Z,645
2017-05-01T12:30:31.586Z,645
2017-05-01T12:31:32.144Z,645
2017-05-01T12:32:31.889Z,640
2017-05-01T12:33:31.893Z,615
2017-05-01T12:34:31.902Z,590
2017-05-01T12:35:31.278Z,580
2017-05-01T12:36:32.138Z,575
2017-05-01T12:37:31.883Z,585
2017-05-01T12:38:31.888Z,585
2017-05-01T12:39:31.882Z,560
2017-05-01T12:40:31.880Z,515
2017-05-01T12:41:32.235Z,480
2017-05-01T12:42:31.575Z,455
2017-05-01T12:43:31.582Z,450
2017-05-01T12:44:31.876Z,465
2017-05-01T12:45:31.578Z,510
2017-05-01T12:46:32.177Z,555
2017-05-01T12:47:31.570Z,600
2017-05-01T12:48:31.875Z,635
2017-05-01T12:49:31.572Z,655
2017-05-01T12:50:31.867Z,665
2017-05-01T12:51:31.866Z,670
2017-05-01T12:52:31.565Z,675
2017-05-01T12:53:31.577Z,670
2017-05-01T12:54:31.569Z,660
2017-05-01T12:55:31.876Z,650
2017-05-01T12:56:32.115Z,650
2017-05-01T12:57:31.862Z,635
2017-05-01T12:58:31.263Z,610
2017-05-01T12:59:31.863Z,595
2017-05-01T13:00:31.252Z,580
2017-05-01T13:01:32.110Z,570
2017-05-01T13:02:31.861Z,570
2017-05-01T13:03:31.857Z,585
2017-05-01T13:04:31.858Z,605
2017-05-01T13:05:31.553Z,620
2017-05-01T13:06:32.159Z,635
2017-05-01T13:07:31.250Z,645
2017-05-01T13:08:31.250Z,640
2017-05-01T13:09:31.859Z,630
2017-05-01T13:10:31.550Z,625
2017-05-01T13:11:31.847Z,625
2017-05-01T13:12:31.247Z,590
2017-05-01T13:13:31.247Z,535
2017-05-01T13:14:31.904Z,470
2017-05-01T13:15:31.546Z,440
2017-05-01T13:16:32.099Z,460
2017-05-01T13:17:31.849Z,490
2017-05-01T13:18:31.852Z,515
2017-05-01T13:19:31.546Z,530
2017-05-01T13:20:31.539Z,535
2017-05-01T13:21:32.093Z,550
2017-05-01T13:22:31.233Z,560
2017-05-01T13:23:31.844Z,570
2017-05-01T13:24:31.850Z,565
2017-05-01T13:25:31.840Z,560
2017-05-01T13:26:31.840Z,540
2017-05-01T13:27:31.836Z,525
2017-05-01T13:28:31.533Z,530
2017-05-01T13:29:31.843Z,500
2017-05-01T13:30:31.532Z,440
2017-05-01T13:31:31.778Z,385
2017-05-01T13:32:31.529Z,365
2017-05-01T13:33:31.838Z,355
2017-05-01T13:34:31.848Z,350
2017-05-01T13:35:31.833Z,350
2017-05-01T13:36:32.129Z,360
2017-05-01T13:37:31.521Z,380
2017-05-01T13:38:31.231Z,400
2017-05-01T13:39:31.219Z,420
2017-05-01T13:40:31.518Z,440
2017-05-01T13:41:32.071Z,455
2017-05-01T13:42:31.824Z,470
2017-05-01T13:43:31.215Z,490
2017-05-01T13:44:31.819Z,505
2017-05-01T13:45:31.819Z,480
2017-05-01T13:46:32.064Z,440
2017-05-01T13:47:31.524Z,390
2017-05-01T13:48:31.813Z,350
2017-05-01T13:49:31.813Z,315
2017-05-01T13:50:31.511Z,295
2017-05-01T13:51:32.051Z,290
2017-05-01T13:52:31.542Z,285
2017-05-01T13:53:31.805Z,285
2017-05-01T13:54:31.807Z,285
2017-05-01T13:55:31.228Z,305
2017-05-01T13:56:32.045Z,335
2017-05-01T13:57:31.795Z,360
2017-05-01T13:58:31.794Z,400
2017-05-01T13:59:31.787Z,430
2017-05-01T14:00:31.784Z,460
2017-05-01T14:01:32.084Z,480